Time;durP1;ratioP1;P1;durP2;ratioP2;P2;SDS_P1;SDS_P2;PMS_P1;PMS_P2;Temp;Humidity;BMP_temperature;BMP_pressure;BME280_temperature;BME280_humidity;BME280_pressure;Samples;Min_cycle;Max_cycle;Signal;HPM_P1;HPM_P2
2021/05/08 00:00:33;;;;;;;2.70;2.45;;;6.60;84.70;;;;;;3565190;40;20040;-68
2021/05/08 00:03:00;;;;;;;5.55;2.67;;;6.50;84.80;;;;;;3563367;40;20040;-68
2021/05/08 00:05:26;;;;;;;3.95;2.67;;;6.50;84.80;;;;;;3561933;40;20040;-68
2021/05/08 00:07:51;;;;;;;5.15;2.70;;;6.40;84.70;;;;;;3562929;40;20046;-68
2021/05/08 00:10:17;;;;;;;3.60;2.58;;;6.50;84.80;;;;;;3567446;40;20403;-69
2021/05/08 00:12:44;;;;;;;2.75;2.25;;;6.50;85.00;;;;;;3565821;40;20030;-68
2021/05/08 00:15:11;;;;;;;4.88;2.80;;;6.40;85.00;;;;;;3563855;40;20056;-67
2021/05/08 00:17:38;;;;;;;6.32;2.55;;;6.40;85.20;;;;;;3562153;40;20034;-68
2021/05/08 00:20:06;;;;;;;2.17;1.98;;;6.40;85.00;;;;;;3562196;40;20030;-68
2021/05/08 00:22:32;;;;;;;2.75;2.22;;;6.40;85.10;;;;;;3563210;40;20040;-68
2021/05/08 00:24:57;;;;;;;3.63;2.70;;;6.40;85.10;;;;;;3566476;40;20037;-68
2021/05/08 00:27:23;;;;;;;3.20;2.50;;;6.40;85.20;;;;;;3568358;40;20041;-68
2021/05/08 00:29:48;;;;;;;3.88;3.05;;;6.40;85.30;;;;;;3570381;40;20106;-68
2021/05/08 00:32:14;;;;;;;3.33;2.40;;;6.30;85.30;;;;;;3569771;40;20049;-68
2021/05/08 00:34:40;;;;;;;4.28;2.80;;;6.30;85.30;;;;;;3568251;40;20037;-68
2021/05/08 00:37:06;;;;;;;3.13;2.55;;;6.40;85.40;;;;;;3565923;40;20468;-67
2021/05/08 00:39:31;;;;;;;3.90;2.25;;;6.40;85.10;;;;;;3566440;40;20025;-68
2021/05/08 00:41:57;;;;;;;2.75;2.25;;;6.40;84.90;;;;;;3563062;40;20479;-68
2021/05/08 00:44:24;;;;;;;2.90;2.60;;;6.30;84.90;;;;;;3564006;40;20037;-67
2021/05/08 00:46:52;;;;;;;4.22;2.55;;;6.30;84.90;;;;;;3566548;40;20389;-67
2021/05/08 00:49:20;;;;;;;3.50;2.55;;;6.30;84.90;;;;;;3570799;40;20029;-67
2021/05/08 00:51:47;;;;;;;4.60;2.60;;;6.30;84.90;;;;;;3564761;40;20437;-68
2021/05/08 00:54:12;;;;;;;2.50;2.30;;;6.30;85.00;;;;;;3563583;40;20064;-68
2021/05/08 00:56:39;;;;;;;3.85;2.80;;;6.30;84.90;;;;;;3563524;40;20397;-68
2021/05/08 00:59:05;;;;;;;3.28;2.53;;;6.30;84.70;;;;;;3563671;40;20549;-68
2021/05/08 01:01:31;;;;;;;3.00;2.45;;;6.30;84.40;;;;;;3566854;40;20036;-68
2021/05/08 01:03:57;;;;;;;2.33;2.13;;;6.30;84.60;;;;;;3569353;40;20092;-68
2021/05/08 01:06:24;;;;;;;2.90;2.58;;;6.20;84.80;;;;;;3570786;40;20040;-68
2021/05/08 01:08:52;;;;;;;3.05;2.40;;;6.20;85.20;;;;;;3570930;40;20053;-67
2021/05/08 01:11:18;;;;;;;3.13;2.40;;;6.30;85.50;;;;;;3569755;40;20040;-68
2021/05/08 01:13:45;;;;;;;2.88;2.40;;;6.30;84.90;;;;;;3566941;40;20647;-68
2021/05/08 01:16:12;;;;;;;4.55;2.65;;;6.30;84.90;;;;;;3565420;40;20037;-68
2021/05/08 01:18:37;;;;;;;3.30;2.58;;;6.30;84.70;;;;;;3564475;40;20030;-67
2021/05/08 01:21:09;;;;;;;3.08;2.35;;;6.30;85.10;;;;;;3562852;40;20037;-68
2021/05/08 01:23:35;;;;;;;3.25;2.55;;;6.30;84.70;;;;;;3555953;40;20648;-68
2021/05/08 01:26:00;;;;;;;8.00;3.20;;;6.30;84.80;;;;;;3567037;40;20036;-68
2021/05/08 01:28:28;;;;;;;3.70;2.78;;;6.30;84.70;;;;;;3565965;40;20036;-67
2021/05/08 01:30:55;;;;;;;3.58;2.50;;;6.20;84.80;;;;;;3556333;40;20405;-67
2021/05/08 01:33:21;;;;;;;2.83;2.42;;;6.20;84.70;;;;;;3561474;40;20036;-68
2021/05/08 01:35:47;;;;;;;4.03;2.72;;;6.20;84.70;;;;;;3563908;40;20072;-68
2021/05/08 01:38:13;;;;;;;3.22;2.67;;;6.20;84.60;;;;;;3565688;40;20043;-67
2021/05/08 01:40:40;;;;;;;3.58;2.33;;;6.10;84.60;;;;;;3565870;40;20037;-68
2021/05/08 01:43:12;;;;;;;3.00;2.40;;;6.10;84.70;;;;;;3568724;40;20131;-67
2021/05/08 01:45:38;;;;;;;4.35;2.85;;;6.10;84.70;;;;;;3571606;40;20040;-69
2021/05/08 01:48:09;;;;;;;2.83;2.50;;;6.10;84.50;;;;;;3569376;40;20112;-67
2021/05/08 01:50:35;;;;;;;4.10;2.67;;;6.10;84.50;;;;;;3567208;40;20045;-68
2021/05/08 01:53:01;;;;;;;3.70;2.58;;;6.20;84.50;;;;;;3565132;40;20134;-68
2021/05/08 01:55:28;;;;;;;4.07;2.63;;;6.20;84.40;;;;;;3564797;40;20350;-68
2021/05/08 01:57:58;;;;;;;3.63;2.28;;;6.30;84.40;;;;;;3561332;40;20065;-68
2021/05/08 02:00:28;;;;;;;5.22;3.00;;;6.30;84.30;;;;;;3563933;40;20041;-68
2021/05/08 02:02:55;;;;;;;3.50;2.60;;;6.30;84.10;;;;;;3564027;40;20049;-68
2021/05/08 02:05:32;;;;;;;6.80;2.72;;;6.30;83.80;;;;;;3565239;40;20131;-68
2021/05/08 02:08:07;;;;;;;4.43;3.03;;;6.20;84.00;;;;;;3569103;40;20025;-68
2021/05/08 02:10:36;;;;;;;3.03;2.40;;;6.20;84.30;;;;;;3561736;40;20033;-67
2021/05/08 02:13:04;;;;;;;2.95;2.63;;;6.20;84.40;;;;;;3563178;40;20031;-67
2021/05/08 02:15:31;;;;;;;4.68;2.85;;;6.10;84.30;;;;;;3565326;40;20073;-68
2021/05/08 02:17:57;;;;;;;3.20;2.60;;;6.10;84.40;;;;;;3565991;40;20147;-67
2021/05/08 02:20:27;;;;;;;4.55;2.50;;;6.10;84.20;;;;;;3568454;40;20036;-68
2021/05/08 02:22:57;;;;;;;3.15;2.55;;;6.10;84.00;;;;;;3571232;40;20040;-67
2021/05/08 02:25:23;;;;;;;2.92;2.63;;;6.00;84.00;;;;;;3570433;40;20135;-67
2021/05/08 02:27:50;;;;;;;4.40;2.53;;;6.00;84.20;;;;;;3566833;40;20138;-67
2021/05/08 02:30:25;;;;;;;3.72;2.60;;;6.00;84.60;;;;;;3567338;40;20037;-68
2021/05/08 02:32:52;;;;;;;3.15;2.15;;;5.90;84.60;;;;;;3564620;40;20029;-68
2021/05/08 02:35:20;;;;;;;3.83;2.30;;;5.90;84.40;;;;;;3565630;40;20021;-68
2021/05/08 02:37:46;;;;;;;4.25;2.33;;;5.90;84.20;;;;;;3568011;40;20029;-68
2021/05/08 02:40:18;;;;;;;5.57;2.42;;;5.80;84.10;;;;;;3569412;40;20029;-67
2021/05/08 02:42:45;;;;;;;4.07;2.83;;;5.80;84.10;;;;;;3567694;40;20037;-68
2021/05/08 02:45:12;;;;;;;4.43;2.50;;;5.80;84.30;;;;;;3556032;40;21024;-68
2021/05/08 02:47:40;;;;;;;4.95;3.30;;;5.70;84.40;;;;;;3568053;40;20107;-68
2021/05/08 02:50:07;;;;;;;5.00;3.15;;;5.70;84.70;;;;;;3564020;40;20423;-67
2021/05/08 02:52:34;;;;;;;6.13;3.25;;;5.70;84.50;;;;;;3566824;40;20029;-67
2021/05/08 02:55:00;;;;;;;9.30;3.03;;;5.70;84.50;;;;;;3566250;40;20441;-68
2021/05/08 02:57:26;;;;;;;5.30;3.38;;;5.60;84.50;;;;;;3566392;40;20040;-68
2021/05/08 02:59:52;;;;;;;3.90;2.70;;;5.60;84.80;;;;;;3562570;40;20381;-68
2021/05/08 03:02:18;;;;;;;6.18;2.58;;;5.60;84.80;;;;;;3563380;40;20056;-68
2021/05/08 03:04:44;;;;;;;4.25;2.78;;;5.60;84.90;;;;;;3568580;40;20834;-68
2021/05/08 03:07:10;;;;;;;3.47;2.85;;;5.60;84.90;;;;;;3567296;40;20049;-69
2021/05/08 03:09:36;;;;;;;6.30;2.90;;;5.60;85.00;;;;;;3564740;40;20026;-67
2021/05/08 03:12:03;;;;;;;3.10;2.72;;;5.60;85.20;;;;;;3565450;40;20029;-70
2021/05/08 03:14:31;;;;;;;5.82;2.80;;;5.60;85.40;;;;;;3569554;40;20126;-68
2021/05/08 03:16:57;;;;;;;2.85;2.33;;;5.60;85.70;;;;;;3568342;40;20033;-68
2021/05/08 03:19:24;;;;;;;3.15;2.20;;;5.60;85.80;;;;;;3564825;40;20041;-68
2021/05/08 03:21:50;;;;;;;6.10;2.65;;;5.70;85.90;;;;;;3565528;40;20303;-68
2021/05/08 03:24:16;;;;;;;6.03;2.80;;;5.70;85.70;;;;;;3563776;40;20033;-68
2021/05/08 03:26:46;;;;;;;4.43;2.83;;;5.70;85.00;;;;;;3563830;40;20033;-69
2021/05/08 03:29:12;;;;;;;3.70;2.70;;;5.70;84.90;;;;;;3570182;40;20029;-68
2021/05/08 03:31:38;;;;;;;6.80;3.25;;;5.80;85.10;;;;;;3566942;40;20032;-68
2021/05/08 03:34:04;;;;;;;6.22;3.55;;;5.80;84.80;;;;;;3567932;40;20766;-69
2021/05/08 03:36:30;;;;;;;4.55;3.20;;;5.90;84.60;;;;;;3567590;40;20042;-68
2021/05/08 03:38:56;;;;;;;4.28;3.03;;;5.90;84.60;;;;;;3566062;40;20017;-68
2021/05/08 03:41:22;;;;;;;4.15;3.00;;;5.90;84.60;;;;;;3566271;40;20030;-68
2021/05/08 03:43:48;;;;;;;4.03;2.63;;;6.00;84.50;;;;;;3565438;40;20037;-68
2021/05/08 03:46:14;;;;;;;3.10;2.50;;;6.00;84.50;;;;;;3567015;40;20029;-68
2021/05/08 03:48:40;;;;;;;3.33;2.50;;;6.00;84.60;;;;;;3564919;40;20169;-68
2021/05/08 03:51:06;;;;;;;3.85;2.75;;;6.10;84.60;;;;;;3567041;40;20136;-68
2021/05/08 03:53:33;;;;;;;4.53;2.88;;;6.20;84.50;;;;;;3565244;40;20038;-68
2021/05/08 03:55:59;;;;;;;4.88;2.95;;;6.30;84.30;;;;;;3566627;40;20658;-68
2021/05/08 03:58:29;;;;;;;6.20;2.60;;;6.30;83.90;;;;;;3565588;40;20061;-68
2021/05/08 04:00:55;;;;;;;5.75;2.83;;;6.40;83.70;;;;;;3569050;40;20036;-68
2021/05/08 04:03:21;;;;;;;2.83;2.50;;;6.40;83.50;;;;;;3564972;40;20088;-68
2021/05/08 04:05:52;;;;;;;3.25;2.25;;;6.40;83.10;;;;;;3563636;40;20033;-68
2021/05/08 04:08:18;;;;;;;5.75;2.50;;;6.60;83.30;;;;;;3564669;40;20037;-68
2021/05/08 04:10:50;;;;;;;2.63;2.35;;;6.60;83.10;;;;;;3566812;40;20041;-68
2021/05/08 04:13:16;;;;;;;2.45;2.22;;;6.70;82.90;;;;;;3568964;40;20034;-67
2021/05/08 04:15:46;;;;;;;4.07;2.90;;;6.80;82.60;;;;;;3571649;40;20033;-67
2021/05/08 04:18:12;;;;;;;4.72;2.47;;;6.90;82.10;;;;;;3569494;40;20037;-67
2021/05/08 04:20:39;;;;;;;3.58;2.22;;;7.00;81.50;;;;;;3565633;40;20569;-68
2021/05/08 04:23:06;;;;;;;2.33;2.08;;;7.00;81.30;;;;;;3568638;40;20040;-68
2021/05/08 04:25:32;;;;;;;5.78;2.55;;;7.10;81.10;;;;;;3567304;40;20036;-67
2021/05/08 04:27:58;;;;;;;4.13;2.72;;;7.20;81.30;;;;;;3565268;40;20017;-67
2021/05/08 04:30:24;;;;;;;5.38;3.30;;;7.20;80.60;;;;;;3565961;40;20292;-67
2021/05/08 04:32:50;;;;;;;3.33;2.83;;;7.30;80.50;;;;;;3565067;40;20056;-68
2021/05/08 04:35:16;;;;;;;4.88;2.63;;;7.40;78.50;;;;;;3565299;40;20037;-67
2021/05/08 11:16:11;;;;;;;7.68;2.63;;;16.00;45.00;;;;;;3553896;39;20845;-64
2021/05/08 11:18:40;;;;;;;4.57;2.58;;;15.70;45.80;;;;;;3556516;40;20052;-64
2021/05/08 11:21:11;;;;;;;5.60;2.50;;;15.80;43.30;;;;;;3553991;40;20037;-64
2021/05/08 11:23:43;;;;;;;3.20;2.63;;;15.90;46.50;;;;;;3553424;40;20045;-64
2021/05/08 11:26:24;;;;;;;4.80;2.83;;;16.20;44.20;;;;;;3560136;40;20034;-65
2021/05/08 11:28:59;;;;;;;6.72;2.75;;;16.30;44.00;;;;;;3555603;40;20072;-65
2021/05/08 11:31:49;;;;;;;3.92;2.58;;;16.30;43.60;;;;;;3557161;40;20757;-64
2021/05/08 11:34:20;;;;;;;5.32;2.80;;;16.40;44.20;;;;;;3554726;40;20026;-64
2021/05/08 11:36:58;;;;;;;4.00;3.05;;;16.60;44.50;;;;;;3553466;40;20047;-65
2021/05/08 11:39:35;;;;;;;4.65;2.50;;;16.60;43.50;;;;;;3551799;40;20030;-66
2021/05/08 11:42:14;;;;;;;5.60;2.58;;;16.60;42.60;;;;;;3557094;40;20091;-63
2021/05/08 11:44:43;;;;;;;3.58;2.60;;;16.60;41.00;;;;;;3555541;40;20092;-64
2021/05/08 11:50:13;;;;;;;33.53;6.88;;;16.30;43.40;;;;;;3557888;40;20327;-66
2021/05/08 11:52:52;;;;;;;23.60;7.10;;;16.30;43.50;;;;;;3554764;40;20034;-66
2021/05/08 11:55:26;;;;;;;7.53;2.90;;;16.40;43.40;;;;;;3555252;40;20804;-66
2021/05/08 11:57:57;;;;;;;22.95;4.53;;;16.60;41.70;;;;;;3554664;40;20034;-64
2021/05/08 12:00:28;;;;;;;3.22;2.17;;;16.70;43.80;;;;;;3557913;40;20026;-66
2021/05/08 12:03:13;;;;;;;5.78;2.85;;;16.90;41.20;;;;;;3550443;40;20046;-66
2021/05/08 12:05:46;;;;;;;2.75;2.15;;;16.90;43.10;;;;;;3555607;40;20019;-62
2021/05/08 12:08:17;;;;;;;14.23;3.53;;;17.00;43.20;;;;;;3554654;40;20033;-64
2021/05/08 12:10:44;;;;;;;4.72;2.97;;;17.00;43.40;;;;;;3552865;40;20037;-65
2021/05/08 12:13:11;;;;;;;3.55;2.33;;;16.90;43.70;;;;;;3549489;40;20923;-65
2021/05/08 12:15:39;;;;;;;3.33;2.28;;;17.00;44.60;;;;;;3553459;40;20045;-66
2021/05/08 12:18:10;;;;;;;2.80;2.45;;;17.10;42.40;;;;;;3554153;40;20617;-66
2021/05/08 12:20:47;;;;;;;5.03;3.30;;;17.10;40.80;;;;;;3553556;40;20490;-66
2021/05/08 12:23:24;;;;;;;3.08;2.33;;;17.10;42.60;;;;;;3551556;40;20042;-66
2021/05/08 12:26:05;;;;;;;4.93;2.90;;;17.00;40.00;;;;;;3547633;40;20026;-66
2021/05/08 12:28:31;;;;;;;2.45;2.03;;;17.00;42.20;;;;;;3545304;40;20074;-66
2021/05/08 12:30:59;;;;;;;3.20;1.98;;;17.00;40.00;;;;;;3545447;40;20155;-65
2021/05/08 12:33:26;;;;;;;3.42;2.20;;;17.00;42.10;;;;;;3545874;40;20427;-66
2021/05/08 12:35:54;;;;;;;3.58;2.40;;;17.10;39.70;;;;;;3545523;40;20042;-66
2021/05/08 12:38:27;;;;;;;4.80;2.13;;;17.00;38.80;;;;;;3541358;40;20035;-66
2021/05/08 12:40:53;;;;;;;2.85;1.90;;;16.90;36.80;;;;;;3543716;40;20038;-66
2021/05/08 12:43:26;;;;;;;4.35;2.25;;;16.80;41.20;;;;;;3545709;40;20308;-66
2021/05/08 12:46:06;;;;;;;2.97;2.28;;;16.90;43.60;;;;;;3548571;40;20444;-66
2021/05/08 12:48:39;;;;;;;2.42;1.77;;;17.00;43.50;;;;;;3550848;40;20026;-66
2021/05/08 12:51:24;;;;;;;3.10;2.05;;;17.10;41.30;;;;;;3544512;40;20034;-66
2021/05/08 12:54:09;;;;;;;2.58;2.25;;;17.10;40.00;;;;;;3547925;40;20034;-67
2021/05/08 12:56:35;;;;;;;3.85;1.75;;;17.20;40.50;;;;;;3548652;40;20120;-68
2021/05/08 12:59:01;;;;;;;2.58;1.65;;;17.30;38.60;;;;;;3549471;40;20034;-68
2021/05/08 13:01:26;;;;;;;5.10;2.20;;;17.20;40.00;;;;;;3551137;40;20402;-67
2021/05/08 13:03:52;;;;;;;4.30;1.80;;;17.20;40.80;;;;;;3550662;40;20038;-67
2021/05/08 13:06:23;;;;;;;1.88;1.60;;;17.30;39.20;;;;;;3537546;40;20545;-67
2021/05/08 13:08:52;;;;;;;2.90;1.90;;;17.40;38.70;;;;;;3547347;40;20165;-67
2021/05/08 13:11:50;;;;;;;3.85;1.50;;;17.30;37.50;;;;;;3545193;40;20022;-68
2021/05/08 13:14:20;;;;;;;3.70;1.75;;;17.20;39.10;;;;;;3549762;40;20045;-67
2021/05/08 13:16:49;;;;;;;2.63;1.40;;;17.20;37.90;;;;;;3547124;40;20143;-66
2021/05/08 13:19:16;;;;;;;3.25;1.75;;;17.10;40.50;;;;;;3548989;40;20112;-68
2021/05/08 13:21:43;;;;;;;3.13;1.60;;;17.20;40.50;;;;;;3548994;40;20486;-68
2021/05/08 13:24:10;;;;;;;3.13;1.88;;;17.40;39.60;;;;;;3550082;40;20102;-70
2021/05/08 13:26:36;;;;;;;2.90;1.73;;;17.50;40.00;;;;;;3551316;40;20022;-68
2021/05/08 13:29:02;;;;;;;2.33;1.60;;;17.60;39.80;;;;;;3550925;40;20522;-68
2021/05/08 13:31:28;;;;;;;2.78;1.40;;;17.70;39.20;;;;;;3549474;40;20041;-67
2021/05/08 13:33:53;;;;;;;1.67;1.30;;;17.60;36.80;;;;;;3548153;40;20037;-67
2021/05/08 13:36:19;;;;;;;2.50;1.70;;;17.50;38.20;;;;;;3547878;40;20745;-68
2021/05/08 13:38:50;;;;;;;3.55;1.88;;;17.40;37.80;;;;;;3549469;40;20024;-68
2021/05/08 13:41:16;;;;;;;2.63;1.50;;;17.40;39.10;;;;;;3550793;40;20041;-68
2021/05/08 13:43:43;;;;;;;3.03;1.97;;;17.30;38.50;;;;;;3549734;40;20023;-72
2021/05/08 13:46:09;;;;;;;4.30;1.83;;;17.30;38.60;;;;;;3546499;40;20228;-68
2021/05/08 13:48:34;;;;;;;8.48;4.10;;;17.30;37.20;;;;;;3547788;40;20048;-67
2021/05/08 13:51:00;;;;;;;3.63;1.98;;;17.30;39.10;;;;;;3549571;40;20669;-69
2021/05/08 13:53:26;;;;;;;3.22;2.55;;;17.30;39.50;;;;;;3542380;40;20031;-69
2021/05/08 13:55:52;;;;;;;3.85;2.10;;;17.40;35.30;;;;;;3544093;40;20019;-68
2021/05/08 13:58:17;;;;;;;5.20;3.63;;;17.40;35.70;;;;;;3545961;40;20026;-68
2021/05/08 14:00:43;;;;;;;3.05;2.00;;;17.20;36.40;;;;;;3548852;40;20026;-68
2021/05/08 14:03:09;;;;;;;6.05;2.80;;;17.10;36.40;;;;;;3548835;40;20061;-68
2021/05/08 14:05:34;;;;;;;7.50;3.63;;;17.10;35.30;;;;;;3546616;40;20431;-68
2021/05/08 14:08:00;;;;;;;2.78;1.80;;;17.20;37.70;;;;;;3543448;40;20028;-68
2021/05/08 14:10:26;;;;;;;4.88;1.98;;;17.30;36.10;;;;;;3546090;40;20066;-70
2021/05/08 14:12:51;;;;;;;2.95;1.90;;;17.20;34.70;;;;;;3546894;40;20052;-69
2021/05/08 14:15:17;;;;;;;3.60;2.55;;;17.20;35.90;;;;;;3545647;40;20038;-69
2021/05/08 14:17:43;;;;;;;2.60;2.08;;;17.20;36.90;;;;;;3540777;40;20038;-68
2021/05/08 14:20:09;;;;;;;6.45;2.10;;;17.20;37.50;;;;;;3544604;40;20146;-69
2021/05/08 14:22:36;;;;;;;2.78;1.70;;;17.30;37.80;;;;;;3548545;40;20066;-68
2021/05/08 14:25:06;;;;;;;4.97;2.65;;;17.40;38.10;;;;;;3548515;40;20057;-68
2021/05/08 14:27:32;;;;;;;3.53;2.70;;;17.50;37.70;;;;;;3548455;40;20034;-68
2021/05/08 14:30:01;;;;;;;3.05;2.40;;;17.40;35.90;;;;;;3549032;40;20037;-69
2021/05/08 14:32:27;;;;;;;3.65;2.15;;;17.30;36.70;;;;;;3546912;40;20130;-69
2021/05/08 14:34:54;;;;;;;3.67;2.72;;;17.10;37.90;;;;;;3547772;40;20044;-69
2021/05/08 14:37:20;;;;;;;3.65;2.38;;;17.00;37.50;;;;;;3546985;40;20123;-68
2021/05/08 14:39:45;;;;;;;2.95;2.03;;;16.90;36.50;;;;;;3546009;40;20046;-68
2021/05/08 14:42:12;;;;;;;2.63;1.85;;;16.90;35.70;;;;;;3548017;40;20040;-68
2021/05/08 14:44:38;;;;;;;4.38;2.38;;;16.90;35.70;;;;;;3545619;40;20027;-68
2021/05/08 14:47:04;;;;;;;3.38;2.08;;;17.00;37.00;;;;;;3548939;40;20092;-68
2021/05/08 14:49:31;;;;;;;2.90;2.25;;;17.10;37.40;;;;;;3545842;40;20050;-68
2021/05/08 14:51:57;;;;;;;5.97;1.85;;;17.20;36.60;;;;;;3546536;40;20034;-68
2021/05/08 14:54:22;;;;;;;2.17;1.80;;;17.20;36.40;;;;;;3547008;40;20049;-67
2021/05/08 14:56:48;;;;;;;4.70;2.63;;;17.10;36.40;;;;;;3547336;40;20026;-67
2021/05/08 14:59:14;;;;;;;3.10;2.13;;;17.20;36.30;;;;;;3548313;40;20034;-68
2021/05/08 15:01:40;;;;;;;3.28;1.77;;;17.10;35.60;;;;;;3546694;40;20029;-70
2021/05/08 15:04:06;;;;;;;2.88;2.03;;;17.00;34.40;;;;;;3547396;40;20033;-69
2021/05/08 15:06:31;;;;;;;2.85;1.98;;;16.90;36.30;;;;;;3546167;40;20043;-69
2021/05/08 15:08:58;;;;;;;3.45;1.83;;;16.90;37.00;;;;;;3550780;40;20359;-71
2021/05/08 15:11:25;;;;;;;4.22;2.30;;;16.90;38.80;;;;;;3547874;40;20033;-70
2021/05/08 15:13:51;;;;;;;3.97;2.50;;;17.00;39.40;;;;;;3547460;40;20030;-69
2021/05/08 15:16:17;;;;;;;6.43;2.80;;;17.10;40.40;;;;;;3548311;40;20081;-69
2021/05/08 15:18:42;;;;;;;10.38;5.93;;;17.20;41.10;;;;;;3549261;40;20027;-69
2021/05/08 15:21:08;;;;;;;7.18;4.82;;;17.40;40.60;;;;;;3547088;40;20144;-69
2021/05/08 15:23:34;;;;;;;14.50;8.38;;;17.60;36.90;;;;;;3545393;40;20038;-69
2021/05/08 15:26:00;;;;;;;9.27;5.80;;;17.70;40.00;;;;;;3548276;40;20038;-68
2021/05/08 15:28:26;;;;;;;7.70;3.95;;;17.80;37.40;;;;;;3548024;40;20066;-68
2021/05/08 15:30:52;;;;;;;8.27;5.78;;;17.90;35.90;;;;;;3549520;40;20042;-69
2021/05/08 15:33:17;;;;;;;12.07;7.47;;;18.00;35.70;;;;;;3544091;40;20407;-70
2021/05/08 15:35:43;;;;;;;10.00;5.22;;;18.00;37.60;;;;;;3546354;40;20042;-69
2021/05/08 15:38:09;;;;;;;10.85;6.95;;;18.10;37.40;;;;;;3548258;40;20026;-68
2021/05/08 15:40:34;;;;;;;5.18;3.63;;;18.10;38.80;;;;;;3545363;40;20042;-69
2021/05/08 15:43:00;;;;;;;5.35;3.35;;;18.00;37.40;;;;;;3543501;40;20034;-68
2021/05/08 15:45:26;;;;;;;6.55;4.65;;;18.10;35.50;;;;;;3551921;40;20375;-69
2021/05/08 15:47:52;;;;;;;9.50;7.03;;;18.00;38.60;;;;;;3544943;40;20726;-68
2021/05/08 15:50:17;;;;;;;6.47;5.18;;;18.10;38.10;;;;;;3547006;40;20026;-69
2021/05/08 15:52:43;;;;;;;8.10;5.18;;;18.40;37.40;;;;;;3547045;40;20036;-67
2021/05/08 15:55:11;;;;;;;5.80;2.92;;;18.60;36.70;;;;;;3547868;40;20047;-69
2021/05/08 15:57:37;;;;;;;6.68;4.70;;;18.60;35.40;;;;;;3549709;40;20041;-76
2021/05/08 16:00:04;;;;;;;8.57;5.32;;;18.50;36.70;;;;;;3543289;40;20430;-68
2021/05/08 16:02:38;;;;;;;11.05;5.72;;;18.20;37.30;;;;;;3545005;40;20049;-72
2021/05/08 16:05:05;;;;;;;9.13;6.93;;;18.10;38.10;;;;;;3547328;40;20041;-67
2021/05/08 16:07:30;;;;;;;7.25;2.80;;;18.10;38.00;;;;;;3549595;40;20034;-67
2021/05/08 16:09:56;;;;;;;3.58;2.22;;;18.20;37.40;;;;;;3548539;40;20435;-66
2021/05/08 16:12:22;;;;;;;4.05;2.90;;;18.20;36.70;;;;;;3547042;40;20627;-67
2021/05/08 16:14:47;;;;;;;4.20;2.40;;;18.00;38.90;;;;;;3549796;40;20041;-67
2021/05/08 16:17:13;;;;;;;5.85;3.88;;;18.00;37.00;;;;;;3550492;40;20442;-67
2021/05/08 16:19:39;;;;;;;5.25;3.42;;;18.00;37.50;;;;;;3550638;40;20077;-67
2021/05/08 16:22:04;;;;;;;4.28;3.63;;;18.10;38.00;;;;;;3546664;40;20095;-67
2021/05/08 16:24:30;;;;;;;11.13;8.57;;;18.10;36.70;;;;;;3549385;40;20037;-67
2021/05/08 16:26:56;;;;;;;6.95;5.20;;;18.20;36.80;;;;;;3549580;40;20034;-67
2021/05/08 16:29:22;;;;;;;8.43;5.10;;;18.10;36.60;;;;;;3549385;40;20484;-68
2021/05/08 16:31:48;;;;;;;5.85;4.00;;;18.20;37.20;;;;;;3546552;40;20033;-68
2021/05/08 16:34:13;;;;;;;4.88;3.45;;;18.20;37.00;;;;;;3549335;40;20030;-67
2021/05/08 16:36:39;;;;;;;4.55;2.95;;;18.30;36.70;;;;;;3550846;40;20034;-68
2021/05/08 16:39:06;;;;;;;4.50;3.30;;;18.40;35.20;;;;;;3551667;40;20038;-67
2021/05/08 16:41:32;;;;;;;3.17;2.53;;;18.40;35.50;;;;;;3550145;40;20085;-68
2021/05/08 16:43:58;;;;;;;5.25;2.70;;;18.40;36.00;;;;;;3549908;40;20116;-68
2021/05/08 16:46:23;;;;;;;2.85;2.35;;;18.50;37.00;;;;;;3549335;40;20041;-68
2021/05/08 16:48:50;;;;;;;4.95;3.60;;;18.50;36.20;;;;;;3551955;40;20026;-68
2021/05/08 16:51:16;;;;;;;3.38;2.55;;;18.50;37.60;;;;;;3550290;40;20112;-68
2021/05/08 16:53:42;;;;;;;2.13;1.90;;;18.50;37.40;;;;;;3547628;40;20063;-69
2021/05/08 16:56:07;;;;;;;4.10;2.40;;;18.50;34.60;;;;;;3548489;40;20729;-67
2021/05/08 16:58:33;;;;;;;4.35;3.50;;;18.40;34.80;;;;;;3549337;40;20029;-65
2021/05/08 17:00:59;;;;;;;5.35;3.15;;;18.30;36.00;;;;;;3548455;40;20031;-68
2021/05/08 17:03:25;;;;;;;3.75;2.80;;;18.10;35.90;;;;;;3542483;40;20046;-68
2021/05/08 17:05:50;;;;;;;3.28;2.25;;;18.00;36.30;;;;;;3545933;40;20036;-67
2021/05/08 17:08:16;;;;;;;5.32;2.80;;;17.90;35.80;;;;;;3547484;40;20149;-68
2021/05/08 17:10:42;;;;;;;4.18;2.85;;;17.90;37.70;;;;;;3546148;40;20045;-67
2021/05/08 17:13:07;;;;;;;4.63;2.10;;;18.00;37.40;;;;;;3545990;40;20033;-67
2021/05/08 17:15:33;;;;;;;4.00;2.72;;;18.00;37.70;;;;;;3551539;40;20061;-68
2021/05/08 17:17:59;;;;;;;3.03;2.50;;;18.00;38.60;;;;;;3549700;40;20035;-68
2021/05/08 17:20:25;;;;;;;4.97;2.22;;;18.10;38.70;;;;;;3547681;40;20663;-68
2021/05/08 17:22:50;;;;;;;3.15;2.10;;;18.10;35.70;;;;;;3549505;40;20765;-68
2021/05/08 17:25:18;;;;;;;2.20;1.98;;;18.10;35.00;;;;;;3551666;40;20018;-67
2021/05/08 17:27:44;;;;;;;2.13;1.80;;;18.00;37.60;;;;;;3546709;40;20042;-65
2021/05/08 17:30:10;;;;;;;3.03;1.80;;;17.90;37.00;;;;;;3549189;40;20046;-65
2021/05/08 17:32:36;;;;;;;3.40;1.98;;;17.90;36.00;;;;;;3547692;40;20055;-65
2021/05/08 17:35:02;;;;;;;2.90;1.50;;;17.80;35.60;;;;;;3549924;40;20084;-65
2021/05/08 17:37:28;;;;;;;2.42;1.70;;;17.70;35.40;;;;;;3547983;40;20033;-65
2021/05/08 17:39:54;;;;;;;2.15;1.90;;;17.70;35.70;;;;;;3549402;40;20740;-65
2021/05/08 17:42:19;;;;;;;2.85;1.40;;;17.70;37.40;;;;;;3548470;40;20026;-66
2021/05/08 17:44:45;;;;;;;1.70;1.60;;;17.70;36.80;;;;;;3548260;40;20502;-64
2021/05/08 17:47:14;;;;;;;3.00;1.65;;;17.70;37.20;;;;;;3545930;40;20136;-65
2021/05/08 17:49:41;;;;;;;2.55;1.73;;;17.60;38.00;;;;;;3545300;40;20035;-66
2021/05/08 17:52:07;;;;;;;2.92;1.60;;;17.60;38.50;;;;;;3549763;40;20026;-64
2021/05/08 17:54:34;;;;;;;1.98;1.55;;;17.50;37.30;;;;;;3546669;40;20030;-65
2021/05/08 17:57:00;;;;;;;1.85;1.40;;;17.60;38.00;;;;;;3548854;40;20030;-66
2021/05/08 17:59:30;;;;;;;2.15;1.30;;;17.50;37.70;;;;;;3548812;40;20057;-66
2021/05/08 18:02:04;;;;;;;2.20;1.45;;;17.50;38.10;;;;;;3549432;40;20037;-64
2021/05/08 18:04:30;;;;;;;1.30;1.10;;;17.50;37.00;;;;;;3544277;40;20029;-65
2021/05/08 18:06:56;;;;;;;1.48;1.30;;;17.50;37.60;;;;;;3540139;40;20034;-65
2021/05/08 18:09:22;;;;;;;1.60;1.27;;;17.40;36.90;;;;;;3547242;40;20686;-65
2021/05/08 18:11:50;;;;;;;1.45;1.25;;;17.40;38.30;;;;;;3548760;40;20036;-65
2021/05/08 18:14:15;;;;;;;2.90;1.25;;;17.40;38.10;;;;;;3548959;40;20165;-66
2021/05/08 18:16:41;;;;;;;1.75;1.10;;;17.40;40.80;;;;;;3550144;40;20050;-65
2021/05/08 18:19:07;;;;;;;4.72;1.33;;;17.40;38.90;;;;;;3549018;40;20026;-65
2021/05/08 18:21:33;;;;;;;3.08;1.27;;;17.50;38.90;;;;;;3548979;40;20179;-67
2021/05/08 18:23:58;;;;;;;3.22;1.30;;;17.50;38.60;;;;;;3543896;40;20688;-66
2021/05/08 18:26:25;;;;;;;3.97;2.25;;;17.50;36.50;;;;;;3546521;40;20040;-64
2021/05/08 18:28:51;;;;;;;4.13;2.80;;;17.40;36.70;;;;;;3549339;40;20040;-67
2021/05/08 18:31:16;;;;;;;3.20;2.20;;;17.20;37.20;;;;;;3548020;40;20030;-67
2021/05/08 18:33:42;;;;;;;4.00;1.95;;;17.00;39.30;;;;;;3547504;40;20355;-67
2021/05/08 18:36:08;;;;;;;1.63;1.38;;;16.80;40.30;;;;;;3544464;40;20033;-66
2021/05/08 18:38:34;;;;;;;1.30;1.20;;;16.60;38.20;;;;;;3547246;40;20034;-66
2021/05/08 18:41:00;;;;;;;1.45;1.27;;;16.40;38.20;;;;;;3548504;40;20040;-65
2021/05/08 18:43:28;;;;;;;1.10;1.00;;;16.20;39.10;;;;;;3544231;40;20044;-67
2021/05/08 18:45:54;;;;;;;1.65;1.50;;;16.10;41.50;;;;;;3547087;40;20027;-66
2021/05/08 18:48:20;;;;;;;3.50;1.55;;;15.90;41.10;;;;;;3548173;40;20027;-66
2021/05/08 18:50:46;;;;;;;4.13;1.58;;;15.80;40.30;;;;;;3545427;40;20034;-67
2021/05/08 18:53:12;;;;;;;1.95;1.40;;;15.70;40.60;;;;;;3549527;40;20345;-67
2021/05/08 18:55:38;;;;;;;2.10;1.40;;;15.60;41.10;;;;;;3550103;40;20057;-66
2021/05/08 18:58:04;;;;;;;4.82;2.05;;;15.40;40.50;;;;;;3547204;40;20124;-69
2021/05/08 19:00:31;;;;;;;4.03;2.10;;;15.30;40.00;;;;;;3547096;40;20404;-70
2021/05/08 19:02:56;;;;;;;2.22;1.73;;;15.20;41.30;;;;;;3547826;40;20034;-66
2021/05/08 19:05:22;;;;;;;2.22;1.30;;;15.10;41.10;;;;;;3547614;40;20041;-67
2021/05/08 19:07:48;;;;;;;2.53;1.55;;;15.10;42.40;;;;;;3548084;40;20026;-66
2021/05/08 19:10:14;;;;;;;3.10;1.73;;;15.10;42.10;;;;;;3546643;40;20030;-66
2021/05/08 19:12:40;;;;;;;7.55;3.25;;;15.00;41.30;;;;;;3544749;40;20034;-65
2021/05/08 19:15:06;;;;;;;3.50;2.08;;;15.00;41.30;;;;;;3545020;40;20174;-65
2021/05/08 19:17:32;;;;;;;8.63;4.60;;;15.00;40.70;;;;;;3549197;40;20100;-66
2021/05/08 19:19:57;;;;;;;4.43;3.13;;;15.00;40.40;;;;;;3549297;40;20073;-65
2021/05/08 19:22:23;;;;;;;4.05;2.05;;;14.90;40.80;;;;;;3548227;40;20121;-67
2021/05/08 19:24:49;;;;;;;2.25;1.70;;;14.80;41.50;;;;;;3545949;40;20038;-65
2021/05/08 19:27:15;;;;;;;2.88;1.83;;;14.80;42.50;;;;;;3546728;40;20092;-65
2021/05/08 19:29:42;;;;;;;3.75;2.03;;;14.80;41.50;;;;;;3547387;40;20097;-64
2021/05/08 19:32:09;;;;;;;2.63;1.70;;;14.90;42.60;;;;;;3547910;40;20041;-66